sensor_id;sensor_type;location;lat;lon;timestamp;pressure;altitude;pressure_sealevel;temperature;humidity
74544;BME280;63016;55.030;38.710;2022-12-29T00:01:46;99783.63;;;1.37;69.97
74544;BME280;63016;55.030;38.710;2022-12-29T00:04:13;99790.28;;;1.39;69.91
74544;BME280;63016;55.030;38.710;2022-12-29T00:06:39;99787.69;;;1.39;70.69
74544;BME280;63016;55.030;38.710;2022-12-29T00:09:05;99785.94;;;1.40;70.24
74544;BME280;63016;55.030;38.710;2022-12-29T00:11:30;99795.31;;;1.41;70.43
74544;BME280;63016;55.030;38.710;2022-12-29T00:13:56;99783.63;;;1.37;70.20
74544;BME280;63016;55.030;38.710;2022-12-29T00:16:42;99795.31;;;1.41;70.31
74544;BME280;63016;55.030;38.710;2022-12-29T00:19:08;99788.44;;;1.41;70.23
74544;BME280;63016;55.030;38.710;2022-12-29T00:21:53;99796.03;;;1.43;70.33
74544;BME280;63016;55.030;38.710;2022-12-29T00:24:37;99803.13;;;1.39;70.44
74544;BME280;63016;55.030;38.710;2022-12-29T00:27:21;99799.53;;;1.42;70.67
74544;BME280;63016;55.030;38.710;2022-12-29T00:30:10;99800.47;;;1.41;70.81
74544;BME280;63016;55.030;38.710;2022-12-29T00:32:54;99800.47;;;1.41;70.22
74544;BME280;63016;55.030;38.710;2022-12-29T00:35:44;99800.47;;;1.41;70.88
74544;BME280;63016;55.030;38.710;2022-12-29T00:38:11;99797.16;;;1.39;70.36
74544;BME280;63016;55.030;38.710;2022-12-29T00:40:56;99808.88;;;1.43;70.64
74544;BME280;63016;55.030;38.710;2022-12-29T00:43:40;99811.56;;;1.41;70.47
74544;BME280;63016;55.030;38.710;2022-12-29T00:46:24;99807.94;;;1.44;70.45
74544;BME280;63016;55.030;38.710;2022-12-29T00:48:49;99811.44;;;1.43;70.66
74544;BME280;63016;55.030;38.710;2022-12-29T00:51:33;99814.00;;;1.43;70.98
74544;BME280;63016;55.030;38.710;2022-12-29T00:53:58;99816.47;;;1.44;70.67
74544;BME280;63016;55.030;38.710;2022-12-29T00:56:24;99815.56;;;1.45;70.48
74544;BME280;63016;55.030;38.710;2022-12-29T00:58:49;99818.00;;;1.47;70.29
74544;BME280;63016;55.030;38.710;2022-12-29T01:01:15;99819.53;;;1.49;70.57
74544;BME280;63016;55.030;38.710;2022-12-29T01:03:40;99823.84;;;1.49;70.93
74544;BME280;63016;55.030;38.710;2022-12-29T01:06:08;99816.88;;;1.51;70.87
74544;BME280;63016;55.030;38.710;2022-12-29T01:08:34;99824.59;;;1.51;70.21
74544;BME280;63016;55.030;38.710;2022-12-29T01:11:08;99828.78;;;1.52;70.69
74544;BME280;63016;55.030;38.710;2022-12-29T01:13:35;99826.34;;;1.50;70.70
74544;BME280;63016;55.030;38.710;2022-12-29T01:16:01;99821.28;;;1.49;70.45
74544;BME280;63016;55.030;38.710;2022-12-29T01:18:27;99826.44;;;1.49;70.80
74544;BME280;63016;55.030;38.710;2022-12-29T01:21:00;99837.44;;;1.51;70.72
74544;BME280;63016;55.030;38.710;2022-12-29T01:23:26;99834.06;;;1.50;70.54
74544;BME280;63016;55.030;38.710;2022-12-29T01:25:52;99832.19;;;1.52;71.02
74544;BME280;63016;55.030;38.710;2022-12-29T01:28:17;99830.44;;;1.53;70.88
74544;BME280;63016;55.030;38.710;2022-12-29T01:30:43;99831.38;;;1.52;70.46
74544;BME280;63016;55.030;38.710;2022-12-29T01:33:08;99839.78;;;1.54;70.46
74544;BME280;63016;55.030;38.710;2022-12-29T01:35:34;99838.88;;;1.55;70.46
74544;BME280;63016;55.030;38.710;2022-12-29T01:37:59;99843.06;;;1.56;70.24
74544;BME280;63016;55.030;38.710;2022-12-29T01:40:25;99844.00;;;1.55;70.57
74544;BME280;63016;55.030;38.710;2022-12-29T01:42:51;99837.00;;;1.57;70.68
74544;BME280;63016;55.030;38.710;2022-12-29T01:45:17;99838.88;;;1.55;70.61
74544;BME280;63016;55.030;38.710;2022-12-29T01:47:45;99851.00;;;1.53;70.22
74544;BME280;63016;55.030;38.710;2022-12-29T01:53:19;99854.38;;;1.53;70.44
74544;BME280;63016;55.030;38.710;2022-12-29T01:55:52;99844.22;;;1.52;70.29
74544;BME280;63016;55.030;38.710;2022-12-29T01:58:37;99852.06;;;1.50;70.46
74544;BME280;63016;55.030;38.710;2022-12-29T02:01:04;99847.94;;;1.48;69.72
74544;BME280;63016;55.030;38.710;2022-12-29T02:03:30;99864.41;;;1.45;69.66
74544;BME280;63016;55.030;38.710;2022-12-29T02:06:14;99855.84;;;1.45;70.31
74544;BME280;63016;55.030;38.710;2022-12-29T02:08:43;99862.16;;;1.41;70.05
74544;BME280;63016;55.030;38.710;2022-12-29T02:11:11;99865.63;;;1.40;70.09
74544;BME280;63016;55.030;38.710;2022-12-29T02:13:37;99863.31;;;1.37;69.98
74544;BME280;63016;55.030;38.710;2022-12-29T02:21:39;99865.97;;;1.35;70.54
74544;BME280;63016;55.030;38.710;2022-12-29T02:27:40;99869.06;;;1.40;70.41
74544;BME280;63016;55.030;38.710;2022-12-29T02:30:26;99859.78;;;1.38;69.96
74544;BME280;63016;55.030;38.710;2022-12-29T02:41:07;99881.72;;;1.31;70.32
74544;BME280;63016;55.030;38.710;2022-12-29T02:51:50;99882.44;;;1.33;69.22
74544;BME280;63016;55.030;38.710;2022-12-29T02:54:20;99887.88;;;1.28;69.51
74544;BME280;63016;55.030;38.710;2022-12-29T02:57:26;99876.38;;;1.21;70.02
74544;BME280;63016;55.030;38.710;2022-12-29T02:59:56;99873.91;;;1.19;69.88
74544;BME280;63016;55.030;38.710;2022-12-29T03:02:42;99878.13;;;1.20;70.33
74544;BME280;63016;55.030;38.710;2022-12-29T03:13:44;99876.28;;;1.22;70.55
74544;BME280;63016;55.030;38.710;2022-12-29T03:16:35;99878.88;;;1.22;70.08
74544;BME280;63016;55.030;38.710;2022-12-29T03:21:51;99877.22;;;1.21;70.64
74544;BME280;63016;55.030;38.710;2022-12-29T03:24:40;99887.50;;;1.21;70.66
74544;BME280;63016;55.030;38.710;2022-12-29T03:27:10;99895.22;;;1.21;70.09
74544;BME280;63016;55.030;38.710;2022-12-29T03:29:40;99893.47;;;1.22;70.03
74544;BME280;63016;55.030;38.710;2022-12-29T03:32:08;99895.09;;;1.23;70.49
74544;BME280;63016;55.030;38.710;2022-12-29T03:34:35;99894.28;;;1.22;70.42
74544;BME280;63016;55.030;38.710;2022-12-29T03:37:11;99895.91;;;1.23;69.97
74544;BME280;63016;55.030;38.710;2022-12-29T03:39:38;99889.97;;;1.23;70.07
74544;BME280;63016;55.030;38.710;2022-12-29T03:42:14;99891.78;;;1.21;70.28
74544;BME280;63016;55.030;38.710;2022-12-29T03:44:42;99900.44;;;1.20;70.11
74544;BME280;63016;55.030;38.710;2022-12-29T03:47:10;99896.22;;;1.19;69.96
74544;BME280;63016;55.030;38.710;2022-12-29T03:49:36;99892.16;;;1.16;69.82
74544;BME280;63016;55.030;38.710;2022-12-29T03:52:02;99900.66;;;1.17;69.99
74544;BME280;63016;55.030;38.710;2022-12-29T03:54:27;99911.78;;;1.17;69.75
74544;BME280;63016;55.030;38.710;2022-12-29T03:56:53;99904.06;;;1.17;70.21
74544;BME280;63016;55.030;38.710;2022-12-29T03:59:18;99912.69;;;1.16;69.67
74544;BME280;63016;55.030;38.710;2022-12-29T04:01:44;99915.47;;;1.13;70.11
74544;BME280;63016;55.030;38.710;2022-12-29T04:04:09;99926.56;;;1.14;69.75
74544;BME280;63016;55.030;38.710;2022-12-29T04:06:35;99930.88;;;1.13;70.15
74544;BME280;63016;55.030;38.710;2022-12-29T04:09:00;99931.81;;;1.12;69.61
74544;BME280;63016;55.030;38.710;2022-12-29T04:11:26;99928.50;;;1.10;70.27
74544;BME280;63016;55.030;38.710;2022-12-29T04:13:51;99930.25;;;1.10;69.53
74544;BME280;63016;55.030;38.710;2022-12-29T04:16:17;99931.19;;;1.09;69.87
74544;BME280;63016;55.030;38.710;2022-12-29T04:18:43;99929.56;;;1.08;69.93
74544;BME280;63016;55.030;38.710;2022-12-29T04:21:08;99932.94;;;1.08;70.32
74544;BME280;63016;55.030;38.710;2022-12-29T04:23:36;99925.44;;;1.05;69.83
74544;BME280;63016;55.030;38.710;2022-12-29T04:26:02;99938.91;;;1.09;69.78
74544;BME280;63016;55.030;38.710;2022-12-29T04:28:28;99931.31;;;1.07;70.33
74544;BME280;63016;55.030;38.710;2022-12-29T04:30:54;99947.31;;;1.11;70.38
74544;BME280;63016;55.030;38.710;2022-12-29T04:33:20;99937.03;;;1.11;70.56
74544;BME280;63016;55.030;38.710;2022-12-29T04:35:46;99943.00;;;1.11;70.27
74544;BME280;63016;55.030;38.710;2022-12-29T04:38:12;99940.66;;;1.08;69.95
74544;BME280;63016;55.030;38.710;2022-12-29T04:40:39;99941.34;;;1.10;69.85
74544;BME280;63016;55.030;38.710;2022-12-29T04:43:05;99942.19;;;1.11;70.17
74544;BME280;63016;55.030;38.710;2022-12-29T04:45:30;99946.50;;;1.10;70.14
74544;BME280;63016;55.030;38.710;2022-12-29T04:47:56;99944.75;;;1.11;70.33
74544;BME280;63016;55.030;38.710;2022-12-29T04:50:21;99944.75;;;1.11;69.99
74544;BME280;63016;55.030;38.710;2022-12-29T04:52:47;99951.63;;;1.10;70.25
74544;BME280;63016;55.030;38.710;2022-12-29T04:55:12;99944.88;;;1.09;70.41
74544;BME280;63016;55.030;38.710;2022-12-29T04:57:38;99947.44;;;1.09;70.21
74544;BME280;63016;55.030;38.710;2022-12-29T05:00:04;99939.84;;;1.08;70.03
74544;BME280;63016;55.030;38.710;2022-12-29T05:02:30;99938.91;;;1.09;70.00
74544;BME280;63016;55.030;38.710;2022-12-29T05:04:55;99944.16;;;1.07;69.73
74544;BME280;63016;55.030;38.710;2022-12-29T05:07:21;99925.34;;;0.94;70.25
74544;BME280;63016;55.030;38.710;2022-12-29T05:09:46;99933.06;;;1.07;69.78
74544;BME280;63016;55.030;38.710;2022-12-29T05:12:12;99946.72;;;1.07;69.73
74544;BME280;63016;55.030;38.710;2022-12-29T05:14:37;99940.78;;;1.07;70.45
74544;BME280;63016;55.030;38.710;2022-12-29T05:17:03;99946.72;;;1.07;69.96
74544;BME280;63016;55.030;38.710;2022-12-29T05:19:28;99953.63;;;1.07;70.41
74544;BME280;63016;55.030;38.710;2022-12-29T05:21:54;99955.34;;;1.06;70.09
74544;BME280;63016;55.030;38.710;2022-12-29T05:24:19;99958.03;;;1.05;70.28
74544;BME280;63016;55.030;38.710;2022-12-29T05:26:45;99962.22;;;1.06;70.32
74544;BME280;63016;55.030;38.710;2022-12-29T05:29:10;99967.47;;;1.04;70.17
74544;BME280;63016;55.030;38.710;2022-12-29T05:31:36;99962.44;;;1.02;70.19
74544;BME280;63016;55.030;38.710;2022-12-29T05:34:02;99969.34;;;1.02;70.32
74544;BME280;63016;55.030;38.710;2022-12-29T05:36:27;99972.81;;;1.01;69.98
74544;BME280;63016;55.030;38.710;2022-12-29T05:38:53;99972.09;;;0.99;69.70
74544;BME280;63016;55.030;38.710;2022-12-29T05:41:18;99973.03;;;0.98;69.88
74544;BME280;63016;55.030;38.710;2022-12-29T05:43:44;99979.09;;;0.97;69.89
74544;BME280;63016;55.030;38.710;2022-12-29T05:46:09;99977.44;;;0.96;70.21
74544;BME280;63016;55.030;38.710;2022-12-29T05:48:35;99970.13;;;0.90;70.06
74544;BME280;63016;55.030;38.710;2022-12-29T05:51:00;99977.84;;;0.90;70.10
74544;BME280;63016;55.030;38.710;2022-12-29T05:53:26;99991.41;;;0.92;69.96
74544;BME280;63016;55.030;38.710;2022-12-29T05:55:51;99986.25;;;0.92;70.43
74544;BME280;63016;55.030;38.710;2022-12-29T05:58:17;99992.34;;;0.91;70.40
74544;BME280;63016;55.030;38.710;2022-12-29T06:00:44;99996.66;;;0.90;70.29
74544;BME280;63016;55.030;38.710;2022-12-29T06:03:09;99998.50;;;0.88;69.71
74544;BME280;63016;55.030;38.710;2022-12-29T06:05:35;100004.47;;;0.89;70.23
74544;BME280;63016;55.030;38.710;2022-12-29T06:08:00;100008.88;;;0.87;69.84
74544;BME280;63016;55.030;38.710;2022-12-29T06:10:26;100003.72;;;0.87;69.84
74544;BME280;63016;55.030;38.710;2022-12-29T06:12:51;100004.47;;;0.89;70.09
74544;BME280;63016;55.030;38.710;2022-12-29T06:15:17;100001.91;;;0.89;70.55
74544;BME280;63016;55.030;38.710;2022-12-29T06:17:43;100004.25;;;0.92;70.30
74544;BME280;63016;55.030;38.710;2022-12-29T06:20:10;100011.06;;;0.93;70.32
74544;BME280;63016;55.030;38.710;2022-12-29T06:22:36;100010.22;;;0.92;70.05
74544;BME280;63016;55.030;38.710;2022-12-29T06:25:02;99994.19;;;0.89;69.91
74544;BME280;63016;55.030;38.710;2022-12-29T06:27:28;100004.06;;;0.95;70.37
74544;BME280;63016;55.030;38.710;2022-12-29T06:29:53;100005.81;;;0.94;69.76
74544;BME280;63016;55.030;38.710;2022-12-29T06:32:19;99996.22;;;0.96;70.01
74544;BME280;63016;55.030;38.710;2022-12-29T06:34:45;100002.41;;;0.94;70.04
74544;BME280;63016;55.030;38.710;2022-12-29T06:37:11;99997.91;;;0.97;69.73
74544;BME280;63016;55.030;38.710;2022-12-29T06:39:36;100003.88;;;0.98;70.23
74544;BME280;63016;55.030;38.710;2022-12-29T06:42:02;100002.22;;;0.97;70.30
74544;BME280;63016;55.030;38.710;2022-12-29T06:44:28;99993.78;;;0.95;70.12
74544;BME280;63016;55.030;38.710;2022-12-29T06:46:53;99997.97;;;0.96;69.93
74544;BME280;63016;55.030;38.710;2022-12-29T06:49:19;100000.38;;;0.99;70.49
74544;BME280;63016;55.030;38.710;2022-12-29T06:51:45;100006.22;;;1.01;70.25
74544;BME280;63016;55.030;38.710;2022-12-29T06:54:11;100002.63;;;1.03;70.41
74544;BME280;63016;55.030;38.710;2022-12-29T06:56:36;100005.91;;;1.06;69.82
74544;BME280;63016;55.030;38.710;2022-12-29T06:59:02;100005.91;;;1.06;70.15
74544;BME280;63016;55.030;38.710;2022-12-29T07:01:28;100010.97;;;1.07;69.94
74544;BME280;63016;55.030;38.710;2022-12-29T07:03:54;100007.34;;;1.10;70.59
74544;BME280;63016;55.030;38.710;2022-12-29T07:06:20;100014.03;;;1.12;70.30
74544;BME280;63016;55.030;38.710;2022-12-29T07:08:45;100013.00;;;1.15;70.38
74544;BME280;63016;55.030;38.710;2022-12-29T07:11:11;100014.56;;;1.17;70.40
74544;BME280;63016;55.030;38.710;2022-12-29T07:13:36;100023.91;;;1.18;70.22
74544;BME280;63016;55.030;38.710;2022-12-29T07:16:06;100026.38;;;1.20;70.15
74544;BME280;63016;55.030;38.710;2022-12-29T07:18:32;100021.34;;;1.18;70.32
74544;BME280;63016;55.030;38.710;2022-12-29T07:20:57;100022.34;;;1.16;70.08
74544;BME280;63016;55.030;38.710;2022-12-29T07:23:23;100027.19;;;1.20;70.36
74544;BME280;63016;55.030;38.710;2022-12-29T07:25:48;100027.19;;;1.20;70.38
74544;BME280;63016;55.030;38.710;2022-12-29T07:28:14;100034.81;;;1.22;70.73
74544;BME280;63016;55.030;38.710;2022-12-29T07:30:39;100026.16;;;1.23;70.56
74544;BME280;63016;55.030;38.710;2022-12-29T07:33:05;100037.16;;;1.25;70.01
74544;BME280;63016;55.030;38.710;2022-12-29T07:35:31;100037.09;;;1.26;70.36
74544;BME280;63016;55.030;38.710;2022-12-29T07:37:56;100039.66;;;1.26;70.13
74544;BME280;63016;55.030;38.710;2022-12-29T07:40:21;100043.97;;;1.26;69.82
74544;BME280;63016;55.030;38.710;2022-12-29T07:42:47;100031.94;;;1.26;70.49
74544;BME280;63016;55.030;38.710;2022-12-29T07:45:12;100036.97;;;1.28;70.35
74544;BME280;63016;55.030;38.710;2022-12-29T07:47:38;100032.75;;;1.27;70.49
74544;BME280;63016;55.030;38.710;2022-12-29T07:50:04;100038.59;;;1.29;70.55
74544;BME280;63016;55.030;38.710;2022-12-29T07:52:30;100038.53;;;1.31;70.04
74544;BME280;63016;55.030;38.710;2022-12-29T07:54:55;100036.84;;;1.29;70.44
74544;BME280;63016;55.030;38.710;2022-12-29T07:57:21;100031.72;;;1.29;70.75
74544;BME280;63016;55.030;38.710;2022-12-29T07:59:46;100033.16;;;1.34;70.49
74544;BME280;63016;55.030;38.710;2022-12-29T08:02:12;100043.31;;;1.35;70.64
74544;BME280;63016;55.030;38.710;2022-12-29T08:04:38;100046.53;;;1.39;70.27
74544;BME280;63016;55.030;38.710;2022-12-29T08:07:03;100048.78;;;1.43;70.07
74544;BME280;63016;55.030;38.710;2022-12-29T08:09:29;100042.72;;;1.44;70.69
74544;BME280;63016;55.030;38.710;2022-12-29T08:11:54;100051.06;;;1.48;70.31
74544;BME280;63016;55.030;38.710;2022-12-29T08:14:20;100050.94;;;1.49;70.29
74544;BME280;63016;55.030;38.710;2022-12-29T08:16:45;100039.13;;;1.47;70.77
74544;BME280;63016;55.030;38.710;2022-12-29T08:19:12;100046.41;;;1.53;70.54
74544;BME280;63016;55.030;38.710;2022-12-29T08:21:38;100048.78;;;1.56;70.57
74544;BME280;63016;55.030;38.710;2022-12-29T08:24:05;100045.16;;;1.59;70.32
74544;BME280;63016;55.030;38.710;2022-12-29T08:26:31;100056.91;;;1.63;70.01
74544;BME280;63016;55.030;38.710;2022-12-29T08:28:56;100054.13;;;1.66;70.60
74544;BME280;63016;55.030;38.710;2022-12-29T08:31:23;100055.66;;;1.68;70.62
74544;BME280;63016;55.030;38.710;2022-12-29T08:33:49;100060.59;;;1.71;70.73
74544;BME280;63016;55.030;38.710;2022-12-29T08:36:15;100053.59;;;1.73;70.19
74544;BME280;63016;55.030;38.710;2022-12-29T08:38:40;100053.50;;;1.75;70.34
74544;BME280;63016;55.030;38.710;2022-12-29T08:41:06;100048.03;;;1.79;70.47
74544;BME280;63016;55.030;38.710;2022-12-29T08:43:31;100053.78;;;1.83;70.98
74544;BME280;63016;55.030;38.710;2022-12-29T08:45:58;100050.88;;;1.88;70.61
74544;BME280;63016;55.030;38.710;2022-12-29T08:48:24;100044.84;;;1.89;70.81
74544;BME280;63016;55.030;38.710;2022-12-29T08:50:49;100047.91;;;1.94;70.78
74544;BME280;63016;55.030;38.710;2022-12-29T08:53:16;100044.09;;;1.99;70.48
74544;BME280;63016;55.030;38.710;2022-12-29T08:55:47;100045.72;;;2.00;70.40
74544;BME280;63016;55.030;38.710;2022-12-29T08:58:13;100046.53;;;2.01;70.52
74544;BME280;63016;55.030;38.710;2022-12-29T09:00:41;100050.44;;;2.06;70.66
74544;BME280;63016;55.030;38.710;2022-12-29T09:03:06;100045.22;;;2.08;70.66
74544;BME280;63016;55.030;38.710;2022-12-29T09:05:32;100038.06;;;2.12;70.25
74544;BME280;63016;55.030;38.710;2022-12-29T09:07:57;100048.03;;;2.16;70.16
74544;BME280;63016;55.030;38.710;2022-12-29T09:10:23;100040.22;;;2.18;70.05
74544;BME280;63016;55.030;38.710;2022-12-29T09:12:48;100038.69;;;2.15;70.39
74544;BME280;63016;55.030;38.710;2022-12-29T09:15:14;100042.06;;;2.16;70.23
74544;BME280;63016;55.030;38.710;2022-12-29T09:17:41;100042.88;;;2.16;69.78
74544;BME280;63016;55.030;38.710;2022-12-29T09:20:11;100049.78;;;2.16;70.02
74544;BME280;63016;55.030;38.710;2022-12-29T09:22:37;100044.44;;;2.19;70.49
74544;BME280;63016;55.030;38.710;2022-12-29T09:25:03;100051.13;;;2.21;70.11
74544;BME280;63016;55.030;38.710;2022-12-29T09:27:29;100048.53;;;2.21;70.17
74544;BME280;63016;55.030;38.710;2022-12-29T09:29:55;100048.53;;;2.21;69.95
74544;BME280;63016;55.030;38.710;2022-12-29T09:32:21;100057.00;;;2.23;70.45
74544;BME280;63016;55.030;38.710;2022-12-29T09:34:46;100048.34;;;2.24;70.43
74544;BME280;63016;55.030;38.710;2022-12-29T09:37:12;100045.75;;;2.24;70.48
74544;BME280;63016;55.030;38.710;2022-12-29T09:39:37;100046.47;;;2.26;70.10
74544;BME280;63016;55.030;38.710;2022-12-29T09:47:28;100032.94;;;2.36;70.12
74544;BME280;63016;55.030;38.710;2022-12-29T09:52:50;100038.81;;;2.38;70.56
74544;BME280;63016;55.030;38.710;2022-12-29T09:55:33;100045.47;;;2.40;70.61
74544;BME280;63016;55.030;38.710;2022-12-29T10:00:38;100041.06;;;2.42;70.20
74544;BME280;63016;55.030;38.710;2022-12-29T10:03:18;100050.19;;;2.46;70.29
74544;BME280;63016;55.030;38.710;2022-12-29T10:08:33;100048.00;;;2.53;70.35
74544;BME280;63016;55.030;38.710;2022-12-29T10:24:16;100054.09;;;2.76;70.53
74544;BME280;63016;55.030;38.710;2022-12-29T10:26:45;100046.03;;;2.80;70.49
74544;BME280;63016;55.030;38.710;2022-12-29T10:29:20;100050.25;;;2.81;70.70
74544;BME280;63016;55.030;38.710;2022-12-29T10:34:28;100046.50;;;2.86;70.39
74544;BME280;63016;55.030;38.710;2022-12-29T10:37:01;100054.00;;;2.89;70.25
74544;BME280;63016;55.030;38.710;2022-12-29T10:39:49;100055.41;;;2.93;70.50
74544;BME280;63016;55.030;38.710;2022-12-29T10:42:29;100065.50;;;2.96;70.68
74544;BME280;63016;55.030;38.710;2022-12-29T10:44:58;100055.28;;;2.94;70.35
74544;BME280;63016;55.030;38.710;2022-12-29T10:47:28;100056.34;;;2.92;70.34
74544;BME280;63016;55.030;38.710;2022-12-29T10:49:54;100050.59;;;2.88;70.32
74544;BME280;63016;55.030;38.710;2022-12-29T10:52:21;100053.28;;;2.87;70.13
74544;BME280;63016;55.030;38.710;2022-12-29T10:54:49;100051.66;;;2.86;69.98
74544;BME280;63016;55.030;38.710;2022-12-29T10:59:54;100056.22;;;2.82;70.48
74544;BME280;63016;55.030;38.710;2022-12-29T11:07:43;100054.19;;;2.74;70.18
74544;BME280;63016;55.030;38.710;2022-12-29T11:10:39;100052.53;;;2.73;70.44
74544;BME280;63016;55.030;38.710;2022-12-29T11:13:15;100054.19;;;2.74;70.77
74544;BME280;63016;55.030;38.710;2022-12-29T11:15:49;100056.75;;;2.74;70.05
74544;BME280;63016;55.030;38.710;2022-12-29T11:18:36;100055.72;;;2.77;70.27
74544;BME280;63016;55.030;38.710;2022-12-29T11:21:04;100046.44;;;2.74;70.34
74544;BME280;63016;55.030;38.710;2022-12-29T11:23:35;100048.81;;;2.77;70.63
74544;BME280;63016;55.030;38.710;2022-12-29T11:28:40;100042.72;;;2.78;70.69
74544;BME280;63016;55.030;38.710;2022-12-29T11:31:07;100057.25;;;2.79;70.24
74544;BME280;63016;55.030;38.710;2022-12-29T11:33:35;100039.09;;;2.81;70.22
74544;BME280;63016;55.030;38.710;2022-12-29T11:36:22;100043.94;;;2.86;70.54
74544;BME280;63016;55.030;38.710;2022-12-29T11:38:51;100040.41;;;2.87;70.57
74544;BME280;63016;55.030;38.710;2022-12-29T11:41:29;100043.69;;;2.89;70.12
74544;BME280;63016;55.030;38.710;2022-12-29T11:43:57;100039.34;;;2.89;70.19
74544;BME280;63016;55.030;38.710;2022-12-29T11:48:51;100048.38;;;2.95;70.05
74544;BME280;63016;55.030;38.710;2022-12-29T11:51:29;100048.38;;;2.95;70.45
74544;BME280;63016;55.030;38.710;2022-12-29T11:53:58;100049.09;;;2.97;70.09
74544;BME280;63016;55.030;38.710;2022-12-29T11:56:42;100036.00;;;3.00;69.87
74544;BME280;63016;55.030;38.710;2022-12-29T11:59:34;100047.81;;;3.02;69.89
74544;BME280;63016;55.030;38.710;2022-12-29T12:05:35;100053.09;;;3.01;70.18
74544;BME280;63016;55.030;38.710;2022-12-29T12:08:07;100055.69;;;3.01;70.25
74544;BME280;63016;55.030;38.710;2022-12-29T12:10:38;100051.47;;;3.00;69.79
74544;BME280;63016;55.030;38.710;2022-12-29T12:13:20;100056.50;;;3.01;70.03
74544;BME280;63016;55.030;38.710;2022-12-29T12:15:54;100051.47;;;3.00;70.11
74544;BME280;63016;55.030;38.710;2022-12-29T12:21:18;100056.72;;;2.98;69.96
74544;BME280;63016;55.030;38.710;2022-12-29T12:26:20;100064.22;;;3.01;69.61
74544;BME280;63016;55.030;38.710;2022-12-29T12:28:53;100066.34;;;2.96;69.70
74544;BME280;63016;55.030;38.710;2022-12-29T12:34:16;100064.78;;;2.94;69.77
74544;BME280;63016;55.030;38.710;2022-12-29T12:39:26;100070.06;;;2.92;69.65
74544;BME280;63016;55.030;38.710;2022-12-29T12:47:40;100080.97;;;2.96;69.99
74544;BME280;63016;55.030;38.710;2022-12-29T12:50:32;100075.22;;;2.92;69.88
74544;BME280;63016;55.030;38.710;2022-12-29T12:53:49;100073.09;;;2.86;69.89
74544;BME280;63016;55.030;38.710;2022-12-29T13:02:46;100082.31;;;2.77;69.90
74544;BME280;63016;55.030;38.710;2022-12-29T13:07:32;100082.50;;;2.74;69.74
74544;BME280;63016;55.030;38.710;2022-12-29T13:20:39;100077.81;;;2.68;70.05
74544;BME280;63016;55.030;38.710;2022-12-29T13:26:32;100078.75;;;2.67;69.78
74544;BME280;63016;55.030;38.710;2022-12-29T13:37:07;100074.25;;;2.58;69.86
74544;BME280;63016;55.030;38.710;2022-12-29T13:39:38;100075.28;;;2.55;69.91
74544;BME280;63016;55.030;38.710;2022-12-29T13:42:04;100074.47;;;2.55;70.11
74544;BME280;63016;55.030;38.710;2022-12-29T13:44:43;100077.84;;;2.55;69.69
74544;BME280;63016;55.030;38.710;2022-12-29T13:47:21;100070.25;;;2.54;70.08
74544;BME280;63016;55.030;38.710;2022-12-29T13:49:51;100072.81;;;2.54;69.65
74544;BME280;63016;55.030;38.710;2022-12-29T13:52:38;100066.84;;;2.53;69.71
74544;BME280;63016;55.030;38.710;2022-12-29T14:00:23;100065.44;;;2.49;69.26
74544;BME280;63016;55.030;38.710;2022-12-29T14:08:57;100066.69;;;2.44;69.87
74544;BME280;63016;55.030;38.710;2022-12-29T14:11:31;100065.75;;;2.45;69.77
74544;BME280;63016;55.030;38.710;2022-12-29T14:13:57;100073.47;;;2.45;70.07
74544;BME280;63016;55.030;38.710;2022-12-29T14:16:32;100063.38;;;2.42;69.41
74544;BME280;63016;55.030;38.710;2022-12-29T14:19:28;100061.88;;;2.39;69.57
74544;BME280;63016;55.030;38.710;2022-12-29T14:22:01;100060.44;;;2.35;69.73
74544;BME280;63016;55.030;38.710;2022-12-29T14:24:38;100062.00;;;2.38;69.79
74544;BME280;63016;55.030;38.710;2022-12-29T14:34:47;100056.22;;;2.34;69.71
74544;BME280;63016;55.030;38.710;2022-12-29T14:39:47;100053.84;;;2.31;69.84
74544;BME280;63016;55.030;38.710;2022-12-29T14:42:14;100063.94;;;2.34;69.77
74544;BME280;63016;55.030;38.710;2022-12-29T14:44:54;100064.78;;;2.35;69.71
74544;BME280;63016;55.030;38.710;2022-12-29T14:50:17;100062.31;;;2.33;69.95
74544;BME280;63016;55.030;38.710;2022-12-29T14:53:02;100064.06;;;2.33;70.16
74544;BME280;63016;55.030;38.710;2022-12-29T14:58:00;100064.28;;;2.29;70.16
74544;BME280;63016;55.030;38.710;2022-12-29T15:00:31;100062.50;;;2.30;70.03
74544;BME280;63016;55.030;38.710;2022-12-29T15:05:44;100072.00;;;2.29;69.66
74544;BME280;63016;55.030;38.710;2022-12-29T15:08:13;100071.19;;;2.29;69.54
74544;BME280;63016;55.030;38.710;2022-12-29T15:11:03;100071.19;;;2.29;69.31
74544;BME280;63016;55.030;38.710;2022-12-29T15:13:38;100066.97;;;2.28;69.26
74544;BME280;63016;55.030;38.710;2022-12-29T15:16:05;100072.94;;;2.28;69.68
74544;BME280;63016;55.030;38.710;2022-12-29T15:18:45;100063.56;;;2.27;69.93
74544;BME280;63016;55.030;38.710;2022-12-29T15:21:12;100061.91;;;2.26;69.56
74544;BME280;63016;55.030;38.710;2022-12-29T15:23:43;100061.91;;;2.26;69.71
74544;BME280;63016;55.030;38.710;2022-12-29T15:26:09;100066.22;;;2.26;69.81
74544;BME280;63016;55.030;38.710;2022-12-29T15:28:44;100068.94;;;2.24;70.03
74544;BME280;63016;55.030;38.710;2022-12-29T15:31:19;100067.16;;;2.25;70.02
74544;BME280;63016;55.030;38.710;2022-12-29T15:33:51;100064.72;;;2.23;69.92
74544;BME280;63016;55.030;38.710;2022-12-29T15:36:25;100063.03;;;2.22;69.49
74544;BME280;63016;55.030;38.710;2022-12-29T15:38:52;100065.63;;;2.22;70.03
74544;BME280;63016;55.030;38.710;2022-12-29T15:41:53;100072.44;;;2.23;69.75
74544;BME280;63016;55.030;38.710;2022-12-29T15:44:39;100056.25;;;2.21;70.06
74544;BME280;63016;55.030;38.710;2022-12-29T15:47:12;100058.84;;;2.21;69.76
74544;BME280;63016;55.030;38.710;2022-12-29T15:49:42;100056.38;;;2.20;69.93
74544;BME280;63016;55.030;38.710;2022-12-29T15:52:08;100055.56;;;2.19;69.69